createdAt,value
2018-02-19T00:01:39.179Z,17.75
2018-02-19T00:04:06.823Z,19.25
2018-02-19T00:06:35.216Z,18.50
2018-02-19T00:09:02.774Z,17.52
2018-02-19T00:11:30.393Z,18.25
2018-02-19T00:13:58.027Z,18.95
2018-02-19T00:16:25.609Z,18.10
2018-02-19T00:18:53.233Z,19.42
2018-02-19T00:21:20.819Z,19.33
2018-02-19T00:23:48.422Z,18.30
2018-02-19T00:26:16.787Z,18.23
2018-02-19T00:28:45.147Z,18.00
2018-02-19T00:31:12.747Z,19.40
2018-02-19T00:33:40.340Z,17.65
2018-02-19T00:36:07.930Z,17.42
2018-02-19T00:38:35.534Z,17.27
2018-02-19T00:41:03.160Z,18.50
2018-02-19T00:43:30.746Z,18.35
2018-02-19T00:45:58.378Z,19.20
2018-02-19T00:48:25.975Z,17.30
2018-02-19T00:50:53.578Z,19.95
2018-02-19T00:53:21.227Z,18.70
2018-02-19T00:55:48.854Z,20.02
2018-02-19T00:58:16.463Z,20.05
2018-02-19T01:00:44.070Z,18.80
2018-02-19T01:03:11.694Z,19.12
2018-02-19T01:05:39.321Z,18.98
2018-02-19T01:08:06.884Z,19.30
2018-02-19T01:10:34.536Z,18.75
2018-02-19T01:13:02.120Z,18.17
2018-02-19T01:15:29.735Z,18.20
2018-02-19T01:17:57.340Z,19.45
2018-02-19T01:20:24.943Z,18.00
2018-02-19T01:22:53.282Z,19.42
2018-02-19T01:25:20.895Z,20.42
2018-02-19T01:27:48.531Z,20.55
2018-02-19T01:30:16.889Z,20.52
2018-02-19T01:38:42.887Z,19.55
2018-02-19T01:41:11.279Z,20.73
2018-02-19T01:43:38.877Z,19.92
2018-02-19T01:46:06.478Z,19.52
2018-02-19T01:48:34.855Z,20.35
2018-02-19T01:51:03.222Z,21.15
2018-02-19T01:53:30.847Z,21.58
2018-02-19T01:55:58.470Z,22.17
2018-02-19T01:58:26.091Z,21.55
2018-02-19T02:00:53.694Z,19.92
2018-02-19T02:03:21.359Z,21.55
2018-02-19T02:05:48.975Z,20.17
2018-02-19T02:08:16.594Z,18.45
2018-02-19T02:10:44.224Z,19.73
2018-02-19T02:13:12.627Z,19.95
2018-02-19T02:15:40.204Z,20.58
2018-02-19T02:18:07.802Z,19.45
2018-02-19T02:20:35.393Z,20.65
2018-02-19T02:23:02.975Z,21.17
2018-02-19T02:25:30.555Z,18.90
2018-02-19T02:27:58.174Z,19.60
2018-02-19T02:30:25.764Z,20.17
2018-02-19T02:32:53.428Z,19.65
2018-02-19T02:35:21.055Z,20.33
2018-02-19T02:37:48.639Z,18.95
2018-02-19T02:40:16.198Z,21.17
2018-02-19T02:42:43.766Z,20.55
2018-02-19T02:45:11.344Z,20.37
2018-02-19T02:47:38.946Z,20.75
2018-02-19T02:50:07.353Z,21.10
2018-02-19T02:52:34.963Z,20.23
2018-02-19T02:55:02.559Z,22.37
2018-02-19T02:57:30.189Z,22.67
2018-02-19T02:59:57.794Z,23.17
2018-02-19T03:02:25.427Z,22.45
2018-02-19T03:04:53.036Z,23.25
2018-02-19T03:07:20.600Z,21.35
2018-02-19T03:09:48.207Z,22.80
2018-02-19T03:12:16.568Z,22.37
2018-02-19T03:14:44.160Z,22.40
2018-02-19T03:17:11.772Z,21.23
2018-02-19T03:19:39.398Z,22.55
2018-02-19T03:22:07.008Z,22.45
2018-02-19T03:24:34.592Z,23.12
2018-02-19T03:27:02.939Z,22.45
2018-02-19T03:29:31.275Z,23.35
2018-02-19T03:31:58.883Z,21.92
2018-02-19T03:34:26.514Z,20.05
2018-02-19T03:36:54.112Z,20.12
2018-02-19T03:39:22.464Z,20.00
2018-02-19T03:41:50.083Z,20.00
2018-02-19T03:44:17.648Z,18.00
2018-02-19T03:46:45.261Z,19.20
2018-02-19T03:49:12.829Z,20.20
2018-02-19T03:51:41.222Z,22.20
2018-02-19T03:54:08.863Z,21.92
2018-02-19T03:56:36.491Z,20.20
2018-02-19T03:59:04.131Z,21.05
2018-02-19T04:01:31.701Z,20.37
2018-02-19T04:03:59.327Z,20.35
2018-02-19T04:06:27.727Z,20.48
2018-02-19T04:08:55.283Z,21.77
2018-02-19T04:11:22.835Z,21.30
2018-02-19T04:13:50.494Z,23.30
2018-02-19T04:16:18.117Z,21.40
2018-02-19T04:18:45.679Z,22.00
2018-02-19T04:21:13.308Z,21.80
2018-02-19T04:23:40.934Z,21.08
2018-02-19T04:26:08.518Z,22.27
2018-02-19T04:28:36.140Z,20.02
2018-02-19T04:31:04.471Z,20.60
2018-02-19T04:33:32.097Z,22.27
2018-02-19T04:35:59.715Z,20.55
2018-02-19T04:38:27.306Z,21.12
2018-02-19T04:40:54.913Z,21.15
2018-02-19T04:43:22.511Z,22.52
2018-02-19T04:46:06.550Z,20.92
2018-02-19T04:48:34.143Z,20.80
2018-02-19T04:51:01.761Z,21.48
2018-02-19T04:53:29.363Z,21.58
2018-02-19T04:55:56.924Z,21.20
2018-02-19T04:58:24.523Z,21.80
2018-02-19T05:00:52.127Z,19.15
2018-02-19T05:03:20.494Z,21.70
2018-02-19T05:05:48.872Z,21.65
2018-02-19T05:08:17.245Z,22.75
2018-02-19T05:10:44.829Z,21.45
2018-02-19T05:13:12.461Z,23.65
2018-02-19T05:15:40.043Z,21.77
2018-02-19T05:18:08.413Z,21.65
2018-02-19T05:20:36.780Z,21.25
2018-02-19T05:23:10.041Z,21.08
2018-02-19T05:25:37.667Z,22.70
2018-02-19T05:28:05.249Z,20.60
2018-02-19T05:30:32.895Z,19.37
2018-02-19T05:33:00.479Z,20.62
2018-02-19T05:35:28.072Z,19.52
2018-02-19T05:37:55.707Z,20.70
2018-02-19T05:40:23.283Z,20.42
2018-02-19T05:42:50.918Z,20.02
2018-02-19T05:45:18.543Z,21.95
2018-02-19T05:47:46.895Z,21.08
2018-02-19T05:50:14.482Z,18.87
2018-02-19T05:52:42.090Z,20.20
2018-02-19T05:55:09.666Z,20.80
2018-02-19T05:57:37.291Z,19.25
2018-02-19T06:00:04.861Z,21.65
2018-02-19T06:02:32.495Z,20.83
2018-02-19T06:05:00.102Z,22.08
2018-02-19T06:07:27.693Z,23.85
2018-02-19T06:09:56.087Z,22.80
2018-02-19T06:12:23.717Z,20.33
2018-02-19T06:14:52.083Z,21.52
2018-02-19T06:17:19.650Z,21.92
2018-02-19T06:19:47.286Z,21.55
2018-02-19T06:22:14.899Z,23.08
2018-02-19T06:24:43.259Z,22.52
2018-02-19T06:27:11.647Z,23.90
2018-02-19T06:29:39.998Z,21.83
2018-02-19T06:32:07.615Z,23.48
2018-02-19T06:34:35.165Z,22.25
2018-02-19T06:37:02.775Z,21.40
2018-02-19T06:39:30.423Z,22.45
2018-02-19T06:41:57.995Z,19.35
2018-02-19T06:44:25.615Z,17.23
2018-02-19T06:46:53.242Z,18.80
2018-02-19T06:49:21.616Z,17.25
2018-02-19T06:51:49.959Z,16.30
2018-02-19T06:54:17.567Z,17.60
2018-02-19T06:56:45.938Z,18.10
2018-02-19T06:59:14.344Z,17.45
2018-02-19T07:01:41.957Z,16.62
2018-02-19T07:04:09.562Z,16.62
2018-02-19T07:06:37.161Z,17.52
2018-02-19T07:09:04.743Z,17.08
2018-02-19T07:11:32.378Z,17.25
2018-02-19T07:14:00.035Z,17.27
2018-02-19T07:16:27.576Z,16.90
2018-02-19T07:18:55.204Z,14.73
2018-02-19T07:21:22.752Z,14.20
2018-02-19T07:23:51.114Z,15.60
2018-02-19T07:26:18.733Z,15.35
2018-02-19T07:28:46.357Z,14.98
2018-02-19T07:31:14.693Z,14.57
2018-02-19T07:33:42.289Z,14.75
2018-02-19T07:36:09.927Z,15.00
2018-02-19T07:38:37.540Z,16.20
2018-02-19T07:41:05.121Z,13.10
2018-02-19T07:43:32.701Z,14.00
2018-02-19T07:46:00.296Z,14.95
2018-02-19T07:48:28.655Z,13.32
2018-02-19T07:50:56.268Z,13.62
2018-02-19T07:53:23.836Z,13.35
2018-02-19T07:55:52.205Z,14.45
2018-02-19T07:58:19.826Z,14.02
2018-02-19T08:00:47.439Z,15.60
2018-02-19T08:03:15.073Z,17.23
2018-02-19T08:05:42.665Z,18.10
2018-02-19T08:08:10.241Z,15.80
2018-02-19T08:10:37.841Z,15.07
2018-02-19T08:13:06.232Z,14.00
2018-02-19T08:15:33.782Z,14.55
2018-02-19T08:18:03.556Z,14.10
2018-02-19T08:20:31.148Z,14.77
2018-02-19T08:22:59.538Z,15.30
2018-02-19T08:25:27.112Z,15.02
2018-02-19T08:27:54.738Z,14.27
2018-02-19T08:30:23.079Z,16.50
2018-02-19T08:32:50.682Z,16.62
2018-02-19T08:35:19.085Z,15.70
2018-02-19T08:37:46.735Z,15.77
2018-02-19T08:40:15.115Z,19.92
2018-02-19T08:42:42.711Z,15.98
2018-02-19T08:45:10.305Z,15.55
2018-02-19T08:47:37.899Z,15.35
2018-02-19T08:50:05.532Z,17.42
2018-02-19T08:52:33.114Z,14.85
2018-02-19T08:55:00.712Z,17.08
2018-02-19T08:57:28.298Z,17.42
2018-02-19T08:59:55.896Z,15.60
2018-02-19T09:02:23.480Z,14.65
2018-02-19T09:04:51.107Z,15.00
2018-02-19T09:07:19.488Z,16.77
2018-02-19T09:09:47.882Z,13.65
2018-02-19T09:12:15.458Z,15.70
2018-02-19T09:14:43.034Z,15.90
2018-02-19T09:17:10.619Z,17.40
2018-02-19T09:19:38.214Z,17.48
2018-02-19T09:22:05.838Z,16.80
2018-02-19T09:24:33.438Z,15.95
2018-02-19T09:27:01.055Z,17.08
2018-02-19T09:29:28.652Z,17.80
2018-02-19T09:31:57.590Z,16.58
2018-02-19T09:34:25.168Z,15.70
2018-02-19T09:36:52.779Z,17.10
2018-02-19T09:39:20.372Z,17.15
2018-02-19T09:41:47.954Z,16.45
2018-02-19T09:44:15.551Z,16.75
2018-02-19T09:46:43.127Z,17.40
2018-02-19T09:49:10.761Z,17.60
2018-02-19T09:51:38.327Z,16.12
2018-02-19T09:54:05.943Z,17.00
2018-02-19T09:56:33.538Z,15.50
2018-02-19T09:59:01.887Z,15.07
2018-02-19T10:01:29.495Z,16.98
2018-02-19T10:03:57.097Z,16.05
2018-02-19T10:06:24.659Z,15.50
2018-02-19T10:08:52.278Z,15.98
2018-02-19T10:11:19.910Z,16.17
2018-02-19T10:13:48.276Z,15.50
2018-02-19T10:16:15.895Z,14.07
2018-02-19T10:18:43.459Z,16.75
2018-02-19T10:21:11.089Z,15.55
2018-02-19T10:23:38.619Z,16.02
2018-02-19T10:26:06.226Z,15.70
2018-02-19T10:28:33.875Z,15.23
2018-02-19T10:31:01.460Z,22.02
2018-02-19T10:33:29.093Z,22.60
2018-02-19T10:35:56.658Z,16.35
2018-02-19T10:38:24.256Z,14.93
2018-02-19T10:40:51.893Z,16.23
2018-02-19T10:43:19.550Z,15.38
2018-02-19T10:45:47.122Z,17.05
2018-02-19T10:48:14.731Z,17.67
2018-02-19T10:50:43.094Z,17.00
2018-02-19T10:53:11.445Z,14.82
2018-02-19T10:55:39.086Z,16.42
2018-02-19T10:58:06.704Z,16.60
2018-02-19T11:00:39.859Z,15.20
2018-02-19T11:03:07.409Z,16.70
2018-02-19T11:05:34.966Z,18.45
2018-02-19T11:08:02.557Z,18.08
2018-02-19T11:10:30.103Z,18.00
2018-02-19T11:12:57.684Z,17.15
2018-02-19T11:15:25.318Z,18.98
2018-02-19T11:17:52.891Z,18.12
2018-02-19T11:20:20.479Z,19.40
2018-02-19T11:22:48.866Z,17.98
2018-02-19T11:25:17.201Z,18.77
2018-02-19T11:27:44.831Z,19.65
2018-02-19T11:30:12.415Z,20.33
2018-02-19T11:32:39.988Z,19.27
2018-02-19T11:35:07.583Z,20.00
2018-02-19T11:37:35.922Z,19.85
2018-02-19T11:40:08.098Z,22.77
2018-02-19T11:42:35.709Z,21.35
2018-02-19T11:45:03.299Z,24.00
2018-02-19T11:47:30.836Z,25.95
2018-02-19T11:49:58.450Z,21.75
2018-02-19T11:52:26.782Z,22.40
2018-02-19T11:54:54.403Z,20.65
2018-02-19T11:57:22.723Z,20.58
2018-02-19T11:59:50.377Z,23.83
2018-02-19T12:02:18.701Z,20.20
2018-02-19T12:04:46.271Z,19.80
2018-02-19T12:07:14.711Z,22.55
2018-02-19T12:09:42.315Z,22.45
2018-02-19T12:12:10.703Z,25.02
2018-02-19T12:14:38.271Z,23.87
2018-02-19T12:17:05.824Z,18.95
2018-02-19T12:19:33.412Z,19.90
2018-02-19T12:22:01.018Z,21.02
2018-02-19T12:24:28.632Z,21.23
2018-02-19T12:26:56.219Z,20.90
2018-02-19T12:29:23.795Z,19.67
2018-02-19T12:31:51.406Z,19.20
2018-02-19T12:34:19.035Z,20.33
2018-02-19T12:36:47.435Z,20.05
2018-02-19T12:39:15.003Z,20.10
2018-02-19T12:41:42.606Z,21.95
2018-02-19T12:44:10.172Z,19.80
2018-02-19T12:46:38.512Z,18.98
2018-02-19T12:49:06.136Z,19.77
2018-02-19T12:51:33.686Z,19.65
2018-02-19T12:54:02.050Z,18.92
2018-02-19T12:56:29.651Z,19.50
2018-02-19T12:58:57.219Z,18.33
2018-02-19T13:01:24.791Z,19.50
2018-02-19T13:03:52.415Z,18.87
2018-02-19T13:06:20.775Z,18.27
2018-02-19T13:08:49.236Z,18.98
2018-02-19T13:11:16.798Z,18.27
2018-02-19T13:13:44.391Z,18.92
2018-02-19T13:16:11.995Z,18.80
2018-02-19T13:18:39.583Z,18.50
2018-02-19T13:21:07.262Z,20.02
2018-02-19T13:23:34.845Z,19.45
2018-02-19T13:26:02.458Z,18.98
2018-02-19T13:28:30.098Z,19.33
2018-02-19T13:30:57.678Z,20.62
2018-02-19T13:33:25.293Z,19.12
2018-02-19T13:35:52.911Z,17.67
2018-02-19T13:38:20.539Z,19.55
2018-02-19T13:40:48.163Z,20.65
2018-02-19T13:43:15.751Z,20.92
2018-02-19T13:45:43.361Z,20.65
2018-02-19T13:48:11.720Z,22.58
2018-02-19T13:50:39.286Z,23.12
2018-02-19T13:53:06.887Z,21.95
2018-02-19T13:55:34.452Z,20.80
2018-02-19T13:58:02.060Z,25.70
2018-02-19T14:00:29.636Z,19.90
2018-02-19T14:02:57.249Z,25.12
2018-02-19T14:05:24.832Z,24.35
2018-02-19T14:07:52.437Z,20.30
2018-02-19T14:10:19.987Z,19.40
2018-02-19T14:12:48.360Z,20.48
2018-02-19T14:15:16.780Z,19.90
2018-02-19T14:17:44.403Z,20.48
2018-02-19T14:20:12.742Z,19.98
2018-02-19T14:22:40.379Z,19.12
2018-02-19T14:25:07.957Z,19.12
2018-02-19T14:27:35.729Z,19.02
2018-02-19T14:30:03.335Z,25.45
2018-02-19T14:32:30.952Z,25.52
2018-02-19T14:34:58.551Z,20.98
2018-02-19T14:37:26.894Z,20.95
2018-02-19T14:39:54.520Z,21.15
2018-02-19T14:42:22.087Z,23.87
2018-02-19T14:44:49.646Z,21.15
2018-02-19T14:47:18.104Z,22.13
2018-02-19T14:49:45.727Z,23.30
2018-02-19T14:52:13.319Z,21.15
2018-02-19T14:54:40.891Z,21.75
2018-02-19T14:57:08.487Z,23.30
2018-02-19T14:59:36.086Z,21.50
2018-02-19T15:02:04.470Z,22.70
2018-02-19T15:04:32.847Z,22.67
2018-02-19T15:07:01.167Z,21.23
2018-02-19T15:09:28.753Z,22.37
2018-02-19T15:11:56.503Z,19.80
2018-02-19T15:14:24.360Z,18.25
2018-02-19T15:16:51.950Z,20.40
2018-02-19T15:19:19.548Z,19.87
2018-02-19T15:21:47.107Z,18.98
2018-02-19T15:24:14.705Z,18.62
2018-02-19T15:26:42.282Z,23.20
2018-02-19T15:29:09.916Z,21.87
2018-02-19T15:31:40.698Z,22.73
2018-02-19T15:34:09.055Z,20.83
2018-02-19T15:36:36.673Z,21.05
2018-02-19T15:39:04.290Z,21.70
2018-02-19T15:41:32.669Z,21.90
2018-02-19T15:44:00.286Z,21.80
2018-02-19T15:46:27.849Z,24.50
2018-02-19T15:48:55.464Z,22.48
2018-02-19T15:51:23.838Z,24.12
2018-02-19T15:53:52.223Z,25.25
2018-02-19T15:56:20.555Z,25.02
2018-02-19T15:58:48.175Z,23.70
2018-02-19T16:01:15.807Z,25.02
2018-02-19T16:03:46.822Z,24.10
2018-02-19T16:06:14.781Z,49.35
2018-02-19T16:08:42.415Z,76.28
2018-02-19T16:11:10.032Z,53.47
2018-02-19T16:13:38.428Z,29.77
2018-02-19T16:16:06.757Z,31.42
2018-02-19T16:18:34.356Z,25.58
2018-02-19T16:21:01.944Z,24.90
2018-02-19T16:23:30.132Z,26.45
2018-02-19T16:25:59.716Z,29.73
2018-02-19T16:28:27.289Z,23.65
2018-02-19T16:30:54.871Z,22.23
2018-02-19T16:33:22.435Z,23.98
2018-02-19T16:35:50.023Z,23.12
2018-02-19T16:38:17.653Z,24.15
2018-02-19T16:40:45.245Z,23.83
2018-02-19T16:43:12.893Z,24.10
2018-02-19T16:45:40.513Z,25.50
2018-02-19T16:48:09.047Z,24.50
2018-02-19T16:50:36.656Z,22.65
2018-02-19T16:53:04.224Z,25.45
2018-02-19T16:55:31.856Z,24.52
2018-02-19T16:58:00.243Z,24.73
2018-02-19T17:00:27.866Z,23.67
2018-02-19T17:02:55.444Z,25.60
2018-02-19T17:08:41.626Z,22.80
2018-02-19T17:11:14.475Z,24.37
2018-02-19T17:28:12.102Z,23.55
2018-02-19T17:30:40.431Z,24.80
2018-02-19T17:36:10.962Z,25.67
2018-02-19T17:38:38.612Z,25.17
2018-02-19T17:41:08.200Z,25.88
2018-02-19T17:43:36.559Z,26.17
2018-02-19T17:46:04.948Z,24.80
2018-02-19T17:48:51.892Z,26.25
2018-02-19T17:51:25.159Z,24.30
2018-02-19T17:56:59.116Z,24.95
2018-02-19T17:59:26.725Z,25.83
2018-02-19T18:01:54.312Z,26.40
2018-02-19T18:04:21.963Z,25.25
2018-02-19T18:06:50.328Z,26.00
2018-02-19T18:09:17.919Z,25.95
2018-02-19T18:11:45.525Z,24.92
2018-02-19T18:14:25.760Z,25.37
2018-02-19T18:16:53.394Z,24.67
2018-02-19T18:19:20.965Z,23.67
2018-02-19T18:21:48.580Z,26.67
2018-02-19T18:24:16.223Z,25.12
2018-02-19T18:26:43.827Z,24.15
2018-02-19T18:29:12.204Z,25.17
2018-02-19T18:31:45.953Z,26.90
2018-02-19T18:34:14.556Z,26.08
2018-02-19T18:39:38.051Z,25.55
2018-02-19T18:42:05.681Z,26.50
2018-02-19T18:44:33.235Z,26.40
2018-02-19T18:47:00.892Z,27.00
2018-02-19T18:49:28.483Z,29.05
2018-02-19T18:51:56.109Z,28.30
2018-02-19T18:54:23.700Z,30.65
2018-02-19T18:56:51.263Z,29.52
2018-02-19T18:59:18.919Z,28.62
2018-02-19T19:01:46.555Z,27.62
2018-02-19T19:04:14.169Z,25.80
2018-02-19T19:06:42.540Z,25.30
2018-02-19T19:09:21.938Z,26.27
2018-02-19T19:11:49.584Z,27.52
2018-02-19T19:14:17.192Z,28.90
2018-02-19T19:16:44.783Z,29.65
2018-02-19T19:19:12.388Z,31.40
2018-02-19T19:21:39.986Z,30.50
2018-02-19T19:24:07.589Z,29.25
2018-02-19T19:26:35.236Z,26.45
2018-02-19T19:29:02.817Z,27.50
2018-02-19T19:31:30.440Z,26.70
2018-02-19T19:33:58.823Z,27.37
2018-02-19T19:36:32.920Z,26.00
2018-02-19T19:39:00.505Z,26.20
2018-02-19T19:41:28.130Z,26.23
2018-02-19T19:43:55.767Z,27.77
2018-02-19T19:46:23.403Z,29.17
2018-02-19T19:48:51.094Z,26.75
2018-02-19T19:51:18.726Z,27.02
2018-02-19T19:53:46.308Z,27.48
2018-02-19T19:56:13.927Z,27.35
2018-02-19T19:58:41.541Z,27.95
2018-02-19T20:01:09.139Z,26.83
2018-02-19T20:03:37.543Z,28.08
2018-02-19T20:06:05.182Z,27.10
2018-02-19T20:08:32.787Z,29.12
2018-02-19T20:11:00.418Z,27.77
2018-02-19T20:13:28.055Z,29.80
2018-02-19T20:15:56.414Z,29.50
2018-02-19T20:18:24.064Z,32.70
2018-02-19T20:20:51.672Z,33.00
2018-02-19T20:23:19.267Z,26.77
2018-02-19T20:25:46.872Z,26.80
2018-02-19T20:28:15.212Z,26.77
2018-02-19T20:30:42.835Z,28.02
2018-02-19T20:33:10.417Z,28.60
2018-02-19T20:35:38.106Z,30.30
2018-02-19T20:38:05.719Z,30.65
2018-02-19T20:40:33.355Z,27.52
2018-02-19T20:43:01.773Z,25.95
2018-02-19T20:45:29.387Z,26.50
2018-02-19T20:47:56.967Z,27.37
2018-02-19T20:50:25.339Z,27.95
2018-02-19T20:52:53.953Z,27.60
2018-02-19T20:55:21.584Z,27.77
2018-02-19T20:57:49.953Z,31.70
2018-02-19T21:00:18.319Z,34.50
2018-02-19T21:02:45.908Z,31.60
2018-02-19T21:05:16.223Z,33.25
2018-02-19T21:07:44.549Z,29.17
2018-02-19T21:10:12.144Z,34.92
2018-02-19T21:12:39.795Z,34.40
2018-02-19T21:15:07.429Z,31.85
2018-02-19T21:17:35.066Z,31.10
2018-02-19T21:20:02.646Z,34.50
2018-02-19T21:22:30.288Z,32.38
2018-02-19T21:24:57.950Z,35.45
2018-02-19T21:27:25.537Z,33.30
2018-02-19T21:29:53.184Z,34.70
2018-02-19T21:32:20.787Z,33.72
2018-02-19T21:34:48.413Z,32.65
2018-02-19T21:37:16.020Z,31.05
2018-02-19T21:39:43.674Z,34.22
2018-02-19T21:42:11.302Z,33.13
2018-02-19T21:44:38.959Z,33.45
2018-02-19T21:47:06.547Z,33.30
2018-02-19T21:49:34.147Z,33.83
2018-02-19T21:52:01.768Z,34.50
2018-02-19T21:54:29.355Z,34.90
2018-02-19T21:56:57.859Z,32.67
2018-02-19T21:59:25.606Z,32.78
2018-02-19T22:01:53.191Z,31.62
2018-02-19T22:04:20.783Z,33.80
2018-02-19T22:06:48.403Z,31.55
2018-02-19T22:09:15.968Z,32.88
2018-02-19T22:11:43.559Z,35.42
2018-02-19T22:14:11.137Z,34.85
2018-02-19T22:16:38.752Z,34.13
2018-02-19T22:19:06.336Z,37.13
2018-02-19T22:21:33.969Z,37.92
2018-02-19T22:24:01.592Z,35.85
2018-02-19T22:26:30.032Z,35.50
2018-02-19T22:28:57.676Z,29.90
2018-02-19T22:31:25.283Z,29.63
2018-02-19T22:33:52.892Z,33.67
2018-02-19T22:36:20.502Z,31.90
2018-02-19T22:38:48.079Z,35.58
2018-02-19T22:41:16.504Z,35.20
2018-02-19T22:43:44.150Z,35.17
2018-02-19T22:46:11.732Z,36.72
2018-02-19T22:48:39.307Z,42.97
2018-02-19T22:51:06.919Z,35.80
2018-02-19T22:53:34.594Z,35.78
2018-02-19T22:56:02.223Z,33.40
2018-02-19T22:58:30.622Z,35.20
2018-02-19T23:00:58.233Z,34.13
2018-02-19T23:03:25.862Z,36.03
2018-02-19T23:05:53.498Z,36.17
2018-02-19T23:08:21.178Z,37.38
2018-02-19T23:10:48.808Z,37.38
2018-02-19T23:13:17.176Z,36.88
2018-02-19T23:15:45.551Z,37.50
2018-02-19T23:18:13.160Z,37.70
2018-02-19T23:20:40.799Z,35.30
2018-02-19T23:23:08.402Z,35.33
2018-02-19T23:25:36.020Z,36.10
2018-02-19T23:28:03.620Z,37.72
2018-02-19T23:30:31.187Z,35.65
2018-02-19T23:32:58.830Z,35.85
2018-02-19T23:35:26.474Z,35.75
2018-02-19T23:37:54.087Z,36.30
2018-02-19T23:40:21.664Z,36.92
2018-02-19T23:42:50.019Z,34.88
2018-02-19T23:45:17.634Z,34.33
2018-02-19T23:47:45.210Z,36.25
2018-02-19T23:50:12.838Z,35.63
2018-02-19T23:52:40.403Z,34.90
2018-02-19T23:55:08.015Z,36.67
2018-02-19T23:57:35.669Z,39.55
